Terminal Aerodrome Forecast
Issued by NWS

Current Version | Previous Version | Text Only | Print | Product List | Glossary On
Versions: 1 2 3 4 5 6 7 8 9 10 11 12 13 14
042
FTUS42 KJAX 121128
TAFVQQ
TAF
KVQQ 121128Z 1212/1312 21006KT P6SM BKN035
     FM121500 24016G24KT P6SM SCT040 SCT250
     FM130000 25007KT P6SM SCT050 SCT250
     FM130600 33007KT P6SM SCT040=

USA.gov is the U.S. government's official web portal to all federal, state and local government web resources and services.